This is the latest recevied weather packets stored in our database for station/object N0ZJT. If no packets are shown the sender has not sent any weather packets the latest 10 day(s).
| Time | Temp. | Humidity | Pressure | Rain* | Wind** | Luminosity | Snow |
|---|---|---|---|---|---|---|---|
| 1777561130 | 10.56° C | 53% | 977.7 hPa | 0 mm | - | - | - |
| 1777560290 | 10° C | 52% | 977.8 hPa | 0 mm | - | - | - |
| 1777559330 | 9.44° C | 53% | 978 hPa | 0 mm | - | - | - |
| 1777558490 | 9.44° C | 56% | 978.2 hPa | 0 mm | - | - | - |
| 1777557530 | 8.89° C | 58% | 978.1 hPa | 0 mm | - | - | - |
| 1777556690 | 8.89° C | 57% | 978 hPa | 0 mm | - | - | - |
| 1777555730 | 8.89° C | 59% | 978.2 hPa | 0 mm | - | - | - |
| 1777554890 | 8.33° C | 61% | 978.1 hPa | 0 mm | - | - | - |
| 1777553930 | 8.33° C | 59% | 978 hPa | 0 mm | - | - | - |
| 1777553341 | 8.33° C | 62% | 978 hPa | 0 mm | - | - | - |
| 1777553090 | 8.33° C | 62% | 978 hPa | 0 mm | - | - | - |
| 1777552369 | 6.67° C | 65% | 978 hPa | 0 mm | - | - | - |
| 1777552130 | 6.67° C | 65% | 978 hPa | 0 mm | - | - | - |
| 1777551538 | 6.67° C | 64% | 977.7 hPa | 0 mm | - | - | - |
| 1777551290 | 6.67° C | 64% | 977.7 hPa | 0 mm | - | - | - |
| 1777550330 | 6.11° C | 65% | 977.8 hPa | 0 mm | - | - | - |
| 1777549490 | 6.11° C | 64% | 977.7 hPa | 0 mm | - | - | - |
| 1777548530 | 6.11° C | 63% | 977.5 hPa | 0 mm | - | - | - |
| 1777547690 | 6.11° C | 63% | 977.5 hPa | 0 mm | - | - | - |
| 1777546730 | 6.11° C | 64% | 977.5 hPa | 0 mm | - | - | - |
| 1777545890 | 6.11° C | 63% | 977.6 hPa | 0 mm | - | - | - |
| 1777544930 | 6.67° C | 62% | 977.7 hPa | 0 mm | - | - | - |
| 1777544090 | 6.67° C | 61% | 977.8 hPa | 0 mm | - | - | - |
| 1777543130 | 7.22° C | 60% | 977.7 hPa | 0 mm | - | - | - |
| 1777542290 | 7.22° C | 60% | 978 hPa | 0 mm | - | - | - |
* Rain latest hour (hover to see other rain measurements)
** Current wind speed in m/s (hover to see current wind gust speed)